Time;durP1;ratioP1;P1;durP2;ratioP2;P2;SDS_P1;SDS_P2;PMS_P1;PMS_P2;Temp;Humidity;BMP_temperature;BMP_pressure;BME280_temperature;BME280_humidity;BME280_pressure;Samples;Min_cycle;Max_cycle;Signal;HPM_P1;HPM_P2
2023/11/29 00:01:18;;;;;;;8.45;4.15;;;4.40;68.50;;;;;;2284108;55;21015;-67
2023/11/29 00:03:46;;;;;;;7.25;3.67;;;4.40;68.60;;;;;;2523201;54;20972;-68
2023/11/29 00:06:13;;;;;;;7.78;4.22;;;4.40;68.70;;;;;;2522368;54;20956;-67
2023/11/29 00:08:43;;;;;;;7.43;4.10;;;4.30;68.70;;;;;;2288710;55;20963;-66
2023/11/29 00:11:10;;;;;;;7.70;3.45;;;4.30;68.80;;;;;;2522181;54;21252;-67
2023/11/29 00:13:36;;;;;;;7.50;4.18;;;4.30;68.90;;;;;;2287270;55;21054;-67
2023/11/29 00:16:03;;;;;;;6.45;3.50;;;4.30;68.90;;;;;;2287907;55;21035;-68
2023/11/29 00:18:29;;;;;;;6.55;3.47;;;4.30;68.90;;;;;;2522893;54;21003;-66
2023/11/29 00:20:59;;;;;;;8.07;4.12;;;4.30;68.90;;;;;;2522861;54;21825;-67
2023/11/29 00:23:27;;;;;;;5.62;3.17;;;4.20;68.80;;;;;;2291449;55;21023;-67
2023/11/29 00:25:54;;;;;;;5.78;3.08;;;4.20;68.70;;;;;;2517042;54;20950;-66
2023/11/29 00:28:20;;;;;;;8.13;3.55;;;4.20;68.90;;;;;;2287995;54;21023;-67
2023/11/29 00:30:47;;;;;;;9.27;4.40;;;4.20;69.00;;;;;;2288419;55;21381;-66
2023/11/29 00:33:13;;;;;;;7.47;3.62;;;4.20;69.10;;;;;;2522580;54;21012;-66
2023/11/29 00:35:39;;;;;;;7.00;3.47;;;4.20;69.10;;;;;;2522522;54;21023;-67
2023/11/29 00:38:06;;;;;;;8.02;4.00;;;4.20;69.20;;;;;;2522338;54;21027;-66
2023/11/29 00:40:32;;;;;;;8.88;4.53;;;4.20;69.20;;;;;;2289215;55;20990;-68
2023/11/29 00:42:59;;;;;;;8.50;3.53;;;4.20;69.30;;;;;;2520806;54;20979;-67
2023/11/29 00:45:27;;;;;;;7.90;3.80;;;4.20;69.30;;;;;;2289470;55;20991;-65
2023/11/29 00:47:53;;;;;;;7.75;3.92;;;4.20;69.30;;;;;;2522846;54;20951;-68
2023/11/29 00:50:21;;;;;;;7.05;3.80;;;4.20;69.20;;;;;;2288306;55;21083;-67
2023/11/29 00:52:51;;;;;;;7.45;3.35;;;4.10;69.00;;;;;;2288409;55;21031;-66
2023/11/29 00:55:18;;;;;;;7.72;3.67;;;4.10;69.10;;;;;;2522561;54;20991;-67
2023/11/29 00:57:45;;;;;;;6.93;3.53;;;4.10;69.00;;;;;;2266197;56;20975;-68
2023/11/29 01:00:15;;;;;;;8.30;4.12;;;4.10;69.00;;;;;;2288314;54;21019;-67
2023/11/29 01:02:41;;;;;;;7.70;3.70;;;4.10;69.10;;;;;;2523516;54;21468;-67
2023/11/29 01:05:09;;;;;;;7.57;3.78;;;4.10;69.10;;;;;;2523450;54;20958;-68
2023/11/29 01:07:35;;;;;;;9.10;4.53;;;4.10;69.20;;;;;;2523305;54;21083;-67
2023/11/29 01:10:02;;;;;;;8.18;4.57;;;4.10;69.20;;;;;;2522064;54;21003;-66
2023/11/29 01:12:28;;;;;;;8.43;4.53;;;4.10;69.30;;;;;;2288674;55;21019;-68
2023/11/29 01:14:57;;;;;;;8.30;4.60;;;4.00;69.40;;;;;;2522732;54;20931;-66
2023/11/29 01:17:23;;;;;;;8.57;4.60;;;4.10;69.60;;;;;;2288096;55;21086;-66
2023/11/29 01:19:51;;;;;;;7.80;3.90;;;3.90;69.50;;;;;;2288242;55;20959;-67
2023/11/29 01:22:17;;;;;;;8.30;4.22;;;4.10;69.70;;;;;;2287926;55;21035;-68
2023/11/29 01:24:43;;;;;;;9.90;5.20;;;4.10;69.80;;;;;;2523288;54;20987;-67
2023/11/29 01:27:11;;;;;;;7.90;4.53;;;4.10;69.80;;;;;;2519388;54;20986;-67
2023/11/29 01:29:37;;;;;;;7.90;4.10;;;4.10;69.80;;;;;;2519281;54;21050;-66
2023/11/29 01:32:08;;;;;;;8.70;4.10;;;4.10;70.60;;;;;;2288220;55;20987;-66
2023/11/29 01:34:34;;;;;;;7.60;3.90;;;4.10;69.90;;;;;;2517444;54;21477;-66
2023/11/29 01:37:01;;;;;;;7.35;4.18;;;4.10;69.90;;;;;;2287249;55;21027;-67
2023/11/29 01:39:27;;;;;;;8.18;3.90;;;4.10;69.90;;;;;;2288126;55;20943;-67
2023/11/29 01:41:54;;;;;;;7.43;4.22;;;4.20;70.00;;;;;;2521780;54;21050;-67
2023/11/29 01:44:20;;;;;;;10.57;4.82;;;4.20;70.10;;;;;;2286135;55;21483;-67
2023/11/29 01:46:47;;;;;;;8.77;4.20;;;4.20;70.10;;;;;;2287997;55;21013;-66
2023/11/29 01:49:14;;;;;;;8.30;4.57;;;4.20;70.20;;;;;;2288394;55;20946;-66
2023/11/29 01:51:41;;;;;;;7.70;4.25;;;4.20;70.20;;;;;;2288344;55;20993;-68
2023/11/29 01:54:07;;;;;;;7.57;3.90;;;4.20;70.20;;;;;;2519109;54;21847;-67
2023/11/29 01:56:33;;;;;;;8.07;4.55;;;4.30;70.30;;;;;;2288840;55;21099;-68
2023/11/29 01:59:00;;;;;;;7.30;4.20;;;4.30;70.30;;;;;;2285310;55;20992;-66
2023/11/29 02:01:27;;;;;;;8.13;4.15;;;4.30;70.30;;;;;;2521856;54;21542;-67
2023/11/29 02:03:53;;;;;;;7.57;4.10;;;4.30;70.30;;;;;;2521999;54;20967;-66
2023/11/29 02:06:20;;;;;;;7.97;4.37;;;4.30;70.30;;;;;;2522474;54;21031;-66
2023/11/29 02:08:46;;;;;;;9.68;5.07;;;4.40;70.40;;;;;;2521312;54;20996;-67
2023/11/29 02:11:13;;;;;;;9.18;5.00;;;4.40;70.40;;;;;;2287610;55;21115;-66
2023/11/29 02:13:40;;;;;;;9.10;4.82;;;4.40;70.40;;;;;;2522129;54;20979;-67
2023/11/29 02:16:06;;;;;;;10.18;4.85;;;4.40;70.40;;;;;;2522312;54;20959;-66
2023/11/29 02:18:33;;;;;;;8.73;5.05;;;4.40;70.50;;;;;;2291717;55;21664;-68
2023/11/29 02:21:00;;;;;;;8.32;4.60;;;4.50;70.60;;;;;;2287270;54;20959;-66
2023/11/29 02:23:41;;;;;;;8.50;4.70;;;4.50;70.60;;;;;;2287185;55;21001;-67
2023/11/29 02:26:10;;;;;;;8.32;4.70;;;4.50;70.50;;;;;;2287192;54;20967;-68
2023/11/29 02:28:36;;;;;;;9.32;5.15;;;4.50;70.60;;;;;;2522908;54;20963;-67
2023/11/29 02:31:05;;;;;;;8.43;4.72;;;4.50;70.70;;;;;;2288312;55;21008;-67
2023/11/29 02:33:33;;;;;;;7.62;4.60;;;4.60;70.70;;;;;;2287986;55;21078;-68
2023/11/29 02:36:00;;;;;;;8.43;4.70;;;4.60;70.70;;;;;;2287883;54;20932;-66
2023/11/29 02:38:26;;;;;;;8.13;4.75;;;4.60;70.70;;;;;;2522757;54;21003;-66
2023/11/29 02:40:52;;;;;;;10.60;5.18;;;4.60;70.70;;;;;;2522652;54;20936;-68
2023/11/29 02:43:19;;;;;;;8.05;4.37;;;4.60;70.70;;;;;;2287723;55;21077;-65
2023/11/29 02:45:45;;;;;;;7.75;4.30;;;4.70;70.80;;;;;;2288121;54;21471;-68
2023/11/29 02:48:12;;;;;;;8.27;4.78;;;4.70;70.80;;;;;;2521730;54;20978;-67
2023/11/29 02:50:38;;;;;;;7.95;4.40;;;4.70;70.80;;;;;;2288276;55;20951;-66
2023/11/29 02:53:07;;;;;;;8.52;4.60;;;4.70;70.80;;;;;;2522391;54;20964;-67
2023/11/29 02:55:37;;;;;;;8.15;4.90;;;4.70;70.80;;;;;;2287922;55;21024;-67
2023/11/29 02:58:03;;;;;;;8.20;4.60;;;4.80;70.90;;;;;;2522268;54;21002;-67
2023/11/29 03:00:29;;;;;;;7.78;4.32;;;4.80;70.80;;;;;;2288121;55;20963;-67
2023/11/29 03:02:57;;;;;;;8.77;4.85;;;4.80;70.80;;;;;;2266046;55;22023;-66
2023/11/29 03:05:24;;;;;;;9.25;5.30;;;4.80;70.90;;;;;;2288176;55;20948;-68
2023/11/29 03:07:50;;;;;;;9.75;5.22;;;4.90;70.90;;;;;;2522573;54;21813;-67
2023/11/29 03:10:17;;;;;;;7.85;4.53;;;4.90;70.90;;;;;;2287959;54;20956;-66
2023/11/29 03:12:45;;;;;;;9.18;5.43;;;4.90;70.90;;;;;;2522345;54;20999;-66
2023/11/29 03:15:16;;;;;;;8.30;5.10;;;4.90;71.50;;;;;;2522404;54;21184;-66
2023/11/29 03:17:43;;;;;;;9.70;5.70;;;5.00;71.00;;;;;;2288154;55;21707;-66
2023/11/29 03:20:09;;;;;;;8.30;4.85;;;5.00;70.90;;;;;;2288137;55;20975;-68
2023/11/29 03:22:36;;;;;;;8.65;5.10;;;5.00;70.90;;;;;;2287967;55;21082;-68
2023/11/29 03:25:03;;;;;;;9.43;5.20;;;5.00;70.90;;;;;;2287714;55;20999;-68
2023/11/29 03:27:29;;;;;;;8.77;5.53;;;5.00;70.90;;;;;;2288177;55;20988;-66
2023/11/29 03:29:56;;;;;;;9.63;5.72;;;5.00;70.90;;;;;;2517134;54;20995;-67
2023/11/29 03:32:22;;;;;;;9.05;5.37;;;5.10;71.70;;;;;;2287678;55;21035;-67
2023/11/29 03:34:48;;;;;;;9.20;5.28;;;5.10;71.10;;;;;;2287571;55;21795;-67
2023/11/29 03:37:14;;;;;;;10.13;6.12;;;5.10;70.90;;;;;;2522233;54;20972;-67
2023/11/29 03:39:42;;;;;;;8.88;5.00;;;5.20;70.90;;;;;;2522432;54;20980;-66
2023/11/29 03:42:08;;;;;;;8.50;4.72;;;5.10;70.70;;;;;;2522862;54;20975;-66
2023/11/29 03:44:36;;;;;;;8.18;4.87;;;5.20;70.80;;;;;;2522432;54;20983;-68
2023/11/29 03:47:02;;;;;;;8.63;4.70;;;5.20;70.80;;;;;;2522273;54;21027;-68
2023/11/29 03:49:29;;;;;;;7.75;4.57;;;5.20;70.80;;;;;;2520197;54;20940;-69
2023/11/29 03:51:55;;;;;;;7.15;4.32;;;5.20;70.80;;;;;;2522418;54;21027;-68
2023/11/29 03:54:21;;;;;;;7.72;4.50;;;5.20;70.70;;;;;;2522535;54;20947;-67
2023/11/29 03:56:48;;;;;;;7.80;4.70;;;5.30;70.70;;;;;;2521164;54;21006;-68
2023/11/29 03:59:14;;;;;;;8.02;4.82;;;5.30;70.70;;;;;;2518386;54;20973;-67
2023/11/29 04:01:40;;;;;;;7.90;4.65;;;5.30;70.50;;;;;;2287984;55;21464;-68
2023/11/29 04:04:07;;;;;;;6.55;4.10;;;5.30;70.50;;;;;;2522684;54;20931;-68
2023/11/29 04:06:33;;;;;;;6.80;4.07;;;5.30;70.50;;;;;;2287701;55;21887;-68
2023/11/29 04:08:59;;;;;;;8.45;4.70;;;5.30;70.50;;;;;;2287602;55;21091;-67
2023/11/29 04:11:26;;;;;;;7.35;4.22;;;5.30;70.40;;;;;;2287958;55;21220;-67
2023/11/29 04:13:52;;;;;;;7.93;4.65;;;5.30;70.30;;;;;;2521743;54;21015;-67
2023/11/29 04:16:27;;;;;;;6.85;4.03;;;5.30;70.30;;;;;;2521723;54;20943;-66
2023/11/29 04:18:53;;;;;;;8.43;4.30;;;5.30;70.10;;;;;;2521417;54;20968;-66
2023/11/29 04:21:30;;;;;;;6.53;4.10;;;5.30;70.20;;;;;;2287917;55;20971;-66
2023/11/29 04:23:58;;;;;;;7.75;4.12;;;5.30;70.00;;;;;;2289769;55;21015;-66
2023/11/29 04:26:39;;;;;;;7.78;4.20;;;5.30;70.20;;;;;;2283361;54;21416;-66
2023/11/29 04:29:07;;;;;;;8.35;4.05;;;5.30;70.10;;;;;;2521222;54;21772;-68
2023/11/29 04:31:38;;;;;;;7.07;3.80;;;5.30;70.10;;;;;;2288722;55;21011;-66
2023/11/29 04:34:04;;;;;;;6.75;4.25;;;5.30;70.10;;;;;;2522217;54;21567;-67
2023/11/29 04:36:32;;;;;;;7.50;4.57;;;5.30;70.10;;;;;;2287368;55;21181;-67
2023/11/29 04:38:58;;;;;;;6.47;3.90;;;5.30;70.10;;;;;;2287943;55;21416;-66
2023/11/29 04:41:25;;;;;;;6.95;4.05;;;5.30;70.00;;;;;;2522271;54;21465;-67
2023/11/29 04:43:51;;;;;;;6.60;3.95;;;5.30;70.00;;;;;;2522481;54;21044;-67
2023/11/29 04:46:17;;;;;;;8.25;4.30;;;5.30;70.00;;;;;;2287559;55;20964;-68
2023/11/29 04:48:44;;;;;;;7.47;4.28;;;5.30;70.00;;;;;;2287369;55;20955;-66
2023/11/29 04:51:10;;;;;;;6.43;4.00;;;5.30;70.00;;;;;;2288154;55;22025;-66
2023/11/29 04:53:40;;;;;;;7.47;4.03;;;5.30;69.90;;;;;;2287242;55;20956;-68
2023/11/29 04:56:07;;;;;;;7.43;4.35;;;5.30;69.80;;;;;;2287523;55;20955;-66
2023/11/29 04:58:39;;;;;;;6.72;3.95;;;5.30;70.00;;;;;;2286674;55;23719;-68
2023/11/29 05:01:09;;;;;;;6.78;4.00;;;5.30;69.90;;;;;;2288644;55;21050;-66
2023/11/29 05:03:39;;;;;;;6.55;3.47;;;5.40;69.90;;;;;;2286822;55;21005;-67
2023/11/29 05:06:06;;;;;;;7.43;4.10;;;5.30;69.90;;;;;;2286676;55;21015;-67
2023/11/29 05:08:34;;;;;;;6.47;3.70;;;5.30;69.80;;;;;;2521932;54;22486;-66
2023/11/29 05:11:00;;;;;;;7.05;4.30;;;5.30;69.80;;;;;;2288169;55;21472;-68
2023/11/29 05:13:27;;;;;;;6.90;4.18;;;5.30;69.70;;;;;;2290259;55;20962;-67
2023/11/29 05:15:53;;;;;;;8.57;4.35;;;5.30;69.80;;;;;;2283416;55;21010;-67
2023/11/29 05:18:20;;;;;;;6.40;3.87;;;5.30;69.70;;;;;;2522189;54;20935;-66
2023/11/29 05:20:46;;;;;;;7.32;4.32;;;5.30;69.70;;;;;;2287980;55;20976;-68
2023/11/29 05:23:13;;;;;;;8.18;4.65;;;5.30;70.40;;;;;;2288164;55;21421;-68
2023/11/29 05:25:39;;;;;;;8.52;4.57;;;5.30;69.70;;;;;;2287948;55;20983;-67
2023/11/29 05:28:06;;;;;;;8.60;4.65;;;5.30;69.70;;;;;;2520935;54;21035;-69
2023/11/29 05:30:32;;;;;;;8.65;4.80;;;5.30;69.70;;;;;;2522215;54;21026;-67
2023/11/29 05:32:59;;;;;;;13.27;6.50;;;5.30;69.60;;;;;;2522426;54;21386;-67
2023/11/29 05:35:26;;;;;;;23.65;9.80;;;5.30;69.60;;;;;;2288071;55;20971;-66
2023/11/29 05:37:52;;;;;;;16.98;8.18;;;5.30;69.60;;;;;;2288005;55;21059;-66
2023/11/29 05:40:20;;;;;;;14.77;7.07;;;5.30;69.60;;;;;;2288163;55;21039;-67
2023/11/29 05:42:46;;;;;;;13.07;6.80;;;5.30;69.70;;;;;;2292178;55;21036;-66
2023/11/29 05:45:13;;;;;;;10.77;5.85;;;5.30;69.70;;;;;;2518309;54;21512;-67
2023/11/29 05:47:39;;;;;;;8.82;5.28;;;5.30;69.70;;;;;;2287588;55;21010;-66
2023/11/29 05:50:09;;;;;;;7.93;4.45;;;5.20;69.70;;;;;;2287992;55;21012;-66
2023/11/29 05:52:36;;;;;;;8.20;4.32;;;5.20;69.70;;;;;;2287515;55;21042;-66
2023/11/29 05:55:03;;;;;;;8.70;5.50;;;5.20;69.80;;;;;;2522191;54;21672;-68
2023/11/29 05:57:29;;;;;;;8.77;5.05;;;5.20;69.90;;;;;;2287507;55;20987;-67
2023/11/29 05:59:56;;;;;;;13.45;7.43;;;5.20;69.90;;;;;;2522274;54;21039;-67
2023/11/29 06:02:23;;;;;;;10.75;6.45;;;5.20;70.00;;;;;;2521914;54;21019;-67
2023/11/29 06:05:04;;;;;;;9.50;5.55;;;5.20;70.00;;;;;;2286091;54;21045;-65
2023/11/29 06:07:33;;;;;;;9.20;5.60;;;5.20;69.80;;;;;;2522633;54;20955;-66
2023/11/29 06:10:03;;;;;;;10.82;6.32;;;5.20;69.90;;;;;;2292876;54;21779;-68
2023/11/29 06:12:30;;;;;;;10.73;6.07;;;5.30;70.00;;;;;;2519228;54;21558;-66
2023/11/29 06:14:57;;;;;;;9.43;5.95;;;5.30;70.10;;;;;;2287538;55;20947;-66
2023/11/29 06:17:23;;;;;;;10.18;5.87;;;5.20;70.00;;;;;;2290965;55;20955;-68
2023/11/29 06:19:50;;;;;;;9.80;5.50;;;5.30;70.10;;;;;;2516434;54;21733;-66
2023/11/29 06:22:17;;;;;;;8.32;4.37;;;5.30;70.10;;;;;;2291796;55;21090;-66
2023/11/29 06:25:00;;;;;;;7.45;4.57;;;5.30;70.10;;;;;;2517253;54;21099;-67
2023/11/29 06:27:30;;;;;;;6.95;4.07;;;5.30;69.80;;;;;;2286943;55;21755;-66
2023/11/29 06:29:59;;;;;;;7.10;4.18;;;5.30;70.10;;;;;;2521759;54;20976;-67
2023/11/29 06:32:26;;;;;;;6.85;4.18;;;5.30;70.10;;;;;;2288357;55;20967;-66
2023/11/29 06:34:55;;;;;;;6.97;3.87;;;5.30;70.00;;;;;;2522549;54;21455;-66
2023/11/29 06:37:22;;;;;;;6.85;3.80;;;5.30;69.80;;;;;;2288629;55;20948;-67
2023/11/29 06:39:48;;;;;;;7.37;4.20;;;5.30;69.80;;;;;;2287768;55;21050;-67
2023/11/29 06:42:15;;;;;;;6.65;4.15;;;5.30;69.80;;;;;;2286789;55;21865;-67
2023/11/29 06:44:41;;;;;;;7.22;4.10;;;5.30;69.80;;;;;;2518380;54;21075;-67
2023/11/29 06:47:08;;;;;;;6.85;4.37;;;5.30;69.80;;;;;;2287922;55;21030;-67
2023/11/29 06:49:35;;;;;;;6.47;3.92;;;5.30;69.80;;;;;;2286827;55;21019;-67
2023/11/29 06:52:03;;;;;;;7.70;4.10;;;5.30;69.80;;;;;;2288175;55;21674;-66
2023/11/29 06:54:29;;;;;;;7.78;4.35;;;5.30;69.80;;;;;;2522927;54;21786;-67
2023/11/29 06:56:56;;;;;;;6.03;3.58;;;5.10;69.70;;;;;;2521299;54;21015;-68
2023/11/29 06:59:22;;;;;;;5.62;3.55;;;5.30;69.80;;;;;;2522398;54;21793;-67
2023/11/29 07:01:49;;;;;;;7.10;3.97;;;5.30;69.90;;;;;;2517148;54;21785;-67
2023/11/29 07:04:15;;;;;;;6.03;3.72;;;5.30;69.80;;;;;;2288400;54;21030;-67
2023/11/29 07:06:41;;;;;;;6.45;4.00;;;5.30;69.90;;;;;;2287516;54;21111;-66
2023/11/29 07:09:07;;;;;;;5.72;3.60;;;5.30;69.90;;;;;;2287182;54;21050;-68
2023/11/29 07:11:36;;;;;;;6.78;4.10;;;5.30;69.90;;;;;;2518392;54;21033;-66
2023/11/29 07:14:04;;;;;;;7.05;4.15;;;5.30;69.90;;;;;;2283274;54;20967;-68
2023/11/29 07:16:31;;;;;;;7.28;4.10;;;5.30;69.80;;;;;;2519117;54;21458;-68
2023/11/29 07:18:57;;;;;;;6.30;3.80;;;5.30;69.80;;;;;;2286479;55;21118;-68
2023/11/29 07:21:23;;;;;;;6.22;3.67;;;5.30;69.80;;;;;;2522610;54;20980;-68
2023/11/29 07:23:53;;;;;;;6.00;3.85;;;5.30;69.90;;;;;;2287486;55;21004;-68
2023/11/29 07:26:20;;;;;;;5.93;3.65;;;5.30;69.90;;;;;;2287910;55;21051;-67
2023/11/29 07:28:47;;;;;;;8.52;4.05;;;5.30;69.80;;;;;;2521948;54;20967;-67
2023/11/29 07:31:13;;;;;;;6.12;3.97;;;5.30;69.90;;;;;;2290664;55;20986;-66
2023/11/29 07:33:47;;;;;;;6.60;3.92;;;5.30;69.90;;;;;;2284550;55;21543;-67
2023/11/29 07:36:23;;;;;;;5.85;3.53;;;5.40;69.80;;;;;;2288192;55;20988;-67
2023/11/29 07:38:50;;;;;;;6.15;3.72;;;5.40;69.90;;;;;;2287589;55;21957;-67
2023/11/29 07:41:17;;;;;;;7.12;3.97;;;5.40;69.90;;;;;;2521988;54;21416;-68
2023/11/29 07:43:44;;;;;;;7.07;4.07;;;5.40;69.90;;;;;;2286400;54;21456;-67
2023/11/29 07:46:10;;;;;;;5.93;3.70;;;5.40;69.90;;;;;;2284258;55;21035;-67
2023/11/29 07:48:37;;;;;;;8.02;3.95;;;5.40;69.90;;;;;;2288283;55;20931;-68
2023/11/29 07:51:03;;;;;;;6.57;4.03;;;5.40;69.90;;;;;;2521893;54;21488;-68
2023/11/29 07:53:30;;;;;;;6.80;4.20;;;5.40;70.00;;;;;;2288201;56;21382;-67
2023/11/29 07:55:56;;;;;;;7.18;4.30;;;5.40;70.00;;;;;;2517355;54;21279;-66
2023/11/29 07:58:22;;;;;;;7.32;4.60;;;5.40;70.00;;;;;;2520730;54;21483;-67
2023/11/29 08:00:50;;;;;;;7.30;4.28;;;5.40;70.10;;;;;;2286264;55;20969;-67
2023/11/29 08:03:16;;;;;;;6.78;4.43;;;5.50;70.10;;;;;;2287845;55;21027;-67
2023/11/29 08:05:42;;;;;;;8.82;5.20;;;5.50;70.10;;;;;;2288142;55;21485;-66
2023/11/29 08:08:10;;;;;;;12.30;5.97;;;5.50;70.10;;;;;;2288434;55;21560;-67
2023/11/29 08:10:37;;;;;;;9.95;5.75;;;5.50;70.10;;;;;;2522736;54;21071;-68
2023/11/29 08:13:03;;;;;;;10.52;5.87;;;5.50;70.80;;;;;;2519397;54;20963;-67
2023/11/29 08:15:30;;;;;;;9.65;5.75;;;5.50;70.10;;;;;;2522540;54;21047;-68
2023/11/29 08:17:56;;;;;;;9.32;5.50;;;5.60;70.20;;;;;;2522270;54;21468;-67
2023/11/29 08:20:22;;;;;;;9.85;5.30;;;5.60;70.30;;;;;;2522615;54;20931;-68
2023/11/29 08:22:49;;;;;;;8.30;5.18;;;5.60;70.30;;;;;;2288293;55;20955;-67
2023/11/29 08:25:16;;;;;;;6.97;4.85;;;5.60;70.30;;;;;;2523064;54;21004;-67
2023/11/29 08:27:44;;;;;;;9.30;5.53;;;5.60;70.30;;;;;;2288138;55;20961;-67
2023/11/29 08:30:11;;;;;;;6.95;4.72;;;5.70;70.20;;;;;;2522221;54;21062;-68
2023/11/29 08:32:37;;;;;;;7.57;4.47;;;5.70;70.20;;;;;;2522902;54;20963;-67
2023/11/29 08:35:05;;;;;;;7.55;4.47;;;5.70;70.30;;;;;;2288280;55;21923;-68
2023/11/29 08:37:31;;;;;;;7.90;4.45;;;5.70;70.30;;;;;;2523470;54;21027;-68
2023/11/29 08:39:59;;;;;;;6.72;4.15;;;5.70;70.30;;;;;;2288005;55;20975;-67
2023/11/29 08:42:28;;;;;;;7.93;4.87;;;5.80;70.40;;;;;;2523355;54;20999;-66
2023/11/29 08:44:55;;;;;;;7.65;4.87;;;5.80;70.40;;;;;;2522400;54;21461;-66
2023/11/29 08:47:25;;;;;;;7.45;4.22;;;5.80;70.30;;;;;;2288375;55;21039;-68
2023/11/29 08:49:51;;;;;;;6.65;4.10;;;5.80;70.20;;;;;;2522511;54;21691;-69
2023/11/29 08:52:19;;;;;;;7.10;4.62;;;5.80;70.40;;;;;;2291338;55;21015;-68
2023/11/29 08:54:49;;;;;;;7.22;4.47;;;5.90;71.10;;;;;;2517795;54;20975;-67
2023/11/29 08:57:17;;;;;;;7.47;4.85;;;5.90;70.30;;;;;;2522775;54;21019;-67
2023/11/29 08:59:46;;;;;;;7.22;4.90;;;5.90;70.30;;;;;;2287610;55;21027;-65
2023/11/29 09:02:12;;;;;;;7.65;5.25;;;5.90;70.30;;;;;;2288628;55;20968;-67
2023/11/29 09:04:39;;;;;;;8.02;4.85;;;6.00;70.30;;;;;;2289236;54;20971;-67
2023/11/29 09:07:08;;;;;;;7.93;4.95;;;6.00;70.30;;;;;;2522867;54;20971;-68
2023/11/29 09:09:34;;;;;;;8.90;5.75;;;6.00;70.30;;;;;;2289371;55;20952;-66
2023/11/29 09:12:01;;;;;;;8.20;5.40;;;6.00;70.30;;;;;;2522301;54;21393;-67
2023/11/29 09:14:29;;;;;;;8.05;5.60;;;6.10;70.50;;;;;;2288020;55;21050;-67
2023/11/29 09:16:56;;;;;;;8.00;5.40;;;6.10;70.50;;;;;;2517357;54;21454;-67
2023/11/29 09:19:24;;;;;;;6.60;4.18;;;6.10;70.50;;;;;;2287480;55;21016;-67
2023/11/29 09:21:51;;;;;;;8.40;4.25;;;6.20;70.60;;;;;;2287851;55;21564;-67
2023/11/29 09:24:17;;;;;;;6.60;4.25;;;6.20;70.50;;;;;;2290023;55;21500;-68
2023/11/29 09:26:43;;;;;;;7.62;4.78;;;6.20;70.50;;;;;;2522870;54;21492;-69
2023/11/29 09:29:10;;;;;;;7.10;4.22;;;6.30;70.60;;;;;;2516313;54;21468;-67
2023/11/29 09:31:39;;;;;;;7.10;4.37;;;6.30;70.50;;;;;;2288963;55;21039;-68
2023/11/29 09:34:07;;;;;;;7.37;4.70;;;6.30;70.50;;;;;;2522082;54;20979;-68
2023/11/29 09:36:33;;;;;;;7.40;4.10;;;6.40;70.50;;;;;;2288848;55;20999;-67
2023/11/29 09:39:07;;;;;;;6.87;4.05;;;6.40;70.50;;;;;;2522320;54;20971;-66
2023/11/29 09:41:34;;;;;;;6.32;4.12;;;6.40;70.40;;;;;;2522312;54;21337;-67
2023/11/29 09:44:03;;;;;;;5.95;3.87;;;6.40;70.30;;;;;;2520162;54;20998;-68
2023/11/29 09:46:30;;;;;;;7.20;4.57;;;6.50;70.30;;;;;;2517540;54;21149;-68
2023/11/29 09:48:58;;;;;;;8.52;5.25;;;6.50;70.30;;;;;;2285728;55;20964;-66
2023/11/29 09:51:25;;;;;;;8.00;4.70;;;6.50;70.20;;;;;;2523244;54;21107;-67
2023/11/29 09:53:51;;;;;;;6.40;4.37;;;6.60;70.30;;;;;;2522885;54;20979;-66
2023/11/29 09:56:18;;;;;;;5.85;3.72;;;6.60;70.30;;;;;;2288586;55;20999;-68
2023/11/29 09:58:45;;;;;;;6.07;3.67;;;6.60;70.20;;;;;;2522771;54;20992;-66
2023/11/29 10:01:15;;;;;;;5.20;3.65;;;6.60;70.20;;;;;;2283652;55;20967;-66
2023/11/29 10:03:42;;;;;;;5.28;3.62;;;6.70;70.20;;;;;;2522883;54;21448;-67
2023/11/29 10:06:09;;;;;;;5.68;3.60;;;6.70;70.30;;;;;;2288246;55;21528;-68
2023/11/29 10:08:36;;;;;;;5.25;3.55;;;6.70;70.30;;;;;;2523321;54;20951;-68
2023/11/29 10:11:05;;;;;;;5.00;3.10;;;6.50;70.10;;;;;;2521959;54;20955;-68
2023/11/29 10:13:31;;;;;;;5.57;3.53;;;6.80;70.30;;;;;;2288127;55;20976;-68
2023/11/29 10:15:58;;;;;;;5.43;3.10;;;6.60;70.20;;;;;;2522308;54;20970;-68
2023/11/29 10:18:25;;;;;;;4.78;2.97;;;6.80;70.30;;;;;;2291527;55;20995;-67
2023/11/29 10:20:51;;;;;;;4.68;3.00;;;6.90;70.50;;;;;;2517392;54;20971;-67
2023/11/29 10:23:24;;;;;;;5.72;3.17;;;6.90;70.50;;;;;;2286947;54;20958;-69
2023/11/29 10:25:51;;;;;;;5.43;3.03;;;6.90;70.60;;;;;;2289777;55;21112;-68
2023/11/29 10:28:18;;;;;;;4.50;2.90;;;6.90;70.60;;;;;;2518072;54;20971;-67
2023/11/29 10:30:44;;;;;;;7.03;3.42;;;7.00;70.80;;;;;;2522619;54;21390;-67
2023/11/29 10:33:10;;;;;;;5.30;3.35;;;7.10;70.70;;;;;;2288107;55;20956;-68
2023/11/29 10:35:37;;;;;;;5.43;3.50;;;7.10;70.70;;;;;;2522433;54;21245;-69
2023/11/29 10:38:12;;;;;;;5.35;3.60;;;7.10;70.70;;;;;;2288413;55;20987;-66
2023/11/29 10:40:39;;;;;;;5.07;3.17;;;7.20;70.70;;;;;;2288164;55;20995;-67
2023/11/29 10:43:06;;;;;;;5.37;3.70;;;7.20;71.30;;;;;;2287950;55;20964;-68
2023/11/29 10:45:35;;;;;;;6.85;4.32;;;7.30;71.80;;;;;;2515298;54;20977;-67
2023/11/29 10:48:03;;;;;;;5.87;3.83;;;7.40;71.90;;;;;;2521537;54;20967;-67
2023/11/29 10:50:29;;;;;;;6.15;3.47;;;7.50;72.30;;;;;;2522633;54;20987;-67
2023/11/29 10:52:55;;;;;;;5.03;3.35;;;7.60;72.70;;;;;;2288044;55;20964;-67
2023/11/29 10:55:22;;;;;;;5.37;3.70;;;7.70;73.00;;;;;;2522237;54;20979;-66
2023/11/29 10:59:48;;;;;;;5.60;3.70;;;7.80;73.30;;;;;;2523231;54;20948;-70
2023/11/29 11:02:15;;;;;;;5.28;3.20;;;8.00;71.70;;;;;;2518685;54;20946;-68
2023/11/29 11:04:44;;;;;;;6.05;3.70;;;8.10;73.50;;;;;;2520863;54;21772;-69
2023/11/29 11:07:42;;;;;;;5.20;3.10;;;8.20;73.20;;;;;;2287651;55;20975;-67
2023/11/29 11:10:10;;;;;;;5.10;3.20;;;8.40;72.30;;;;;;2522410;54;21460;-66
2023/11/29 11:12:37;;;;;;;6.57;4.00;;;8.40;72.60;;;;;;2522876;54;20978;-69
2023/11/29 11:15:07;;;;;;;6.00;3.67;;;8.50;72.20;;;;;;2287708;55;21003;-67
2023/11/29 11:17:37;;;;;;;6.60;3.78;;;8.50;71.50;;;;;;2288235;55;20967;-66
2023/11/29 11:20:07;;;;;;;4.60;2.78;;;8.60;71.20;;;;;;2287233;55;20991;-69
2023/11/29 11:22:52;;;;;;;5.87;3.20;;;8.60;71.10;;;;;;2288078;55;20963;-68
2023/11/29 11:25:19;;;;;;;6.75;3.17;;;8.60;70.90;;;;;;2288375;55;21063;-67
2023/11/29 11:27:46;;;;;;;5.00;3.05;;;8.60;70.50;;;;;;2522548;54;20956;-67
2023/11/29 11:30:31;;;;;;;6.05;3.33;;;8.60;70.30;;;;;;2288240;55;21030;-67
2023/11/29 11:32:58;;;;;;;4.80;2.85;;;8.70;69.50;;;;;;2287587;55;21448;-68
2023/11/29 11:35:25;;;;;;;4.43;2.97;;;8.70;70.30;;;;;;2287338;55;20967;-68
2023/11/29 11:37:55;;;;;;;4.68;2.92;;;8.60;70.10;;;;;;2522655;54;20971;-69
2023/11/29 11:40:26;;;;;;;4.22;2.58;;;8.70;69.90;;;;;;2491027;54;21682;-68
2023/11/29 11:42:53;;;;;;;4.22;2.62;;;8.60;69.70;;;;;;2290300;55;21257;-68
2023/11/29 11:45:21;;;;;;;4.43;2.50;;;8.60;69.80;;;;;;2522583;54;21032;-67
2023/11/29 11:47:49;;;;;;;5.03;2.87;;;8.60;69.90;;;;;;2288106;55;21923;-67
2023/11/29 11:50:18;;;;;;;5.45;3.00;;;8.60;70.10;;;;;;2287745;55;20980;-68
2023/11/29 11:52:46;;;;;;;5.47;2.95;;;8.60;70.10;;;;;;2290281;55;21131;-67
2023/11/29 11:55:16;;;;;;;4.57;2.78;;;8.70;70.30;;;;;;2517204;54;21867;-67
2023/11/29 11:57:44;;;;;;;4.57;2.95;;;8.70;70.30;;;;;;2521269;54;20972;-69
2023/11/29 12:00:11;;;;;;;5.05;2.75;;;8.70;70.40;;;;;;2521956;54;20979;-68
2023/11/29 12:02:38;;;;;;;4.12;2.72;;;8.70;70.60;;;;;;2523099;54;21244;-68
2023/11/29 12:05:05;;;;;;;4.20;2.70;;;8.80;70.80;;;;;;2288511;55;21027;-68
2023/11/29 12:07:39;;;;;;;4.68;2.80;;;8.80;70.90;;;;;;2289623;55;21030;-68
2023/11/29 12:10:09;;;;;;;4.15;2.50;;;8.80;71.10;;;;;;2285076;54;21035;-68
2023/11/29 12:12:36;;;;;;;4.65;2.65;;;8.80;71.20;;;;;;2287963;55;21060;-69
2023/11/29 12:15:02;;;;;;;5.12;3.30;;;8.90;71.40;;;;;;2523021;54;21172;-68
2023/11/29 12:18:11;;;;;;;4.75;2.97;;;9.00;71.30;;;;;;2523195;54;20967;-66
2023/11/29 12:20:37;;;;;;;4.85;3.25;;;9.00;70.50;;;;;;2522062;54;20975;-69
2023/11/29 12:23:05;;;;;;;4.87;2.78;;;9.10;71.60;;;;;;2522158;54;21578;-68
2023/11/29 12:25:31;;;;;;;4.43;2.83;;;9.10;71.50;;;;;;2522307;54;20976;-68
2023/11/29 12:27:59;;;;;;;5.87;3.37;;;9.20;71.80;;;;;;2288091;55;20967;-67
2023/11/29 12:30:26;;;;;;;5.78;3.47;;;9.20;71.70;;;;;;2523222;54;21739;-67
2023/11/29 12:32:55;;;;;;;5.22;3.28;;;9.30;71.90;;;;;;2522721;54;20985;-68
2023/11/29 12:35:21;;;;;;;4.57;2.85;;;9.40;71.80;;;;;;2522996;54;22001;-67
2023/11/29 12:37:47;;;;;;;4.72;2.78;;;9.40;71.70;;;;;;2522752;54;20991;-67
2023/11/29 12:40:19;;;;;;;3.92;2.33;;;9.50;71.80;;;;;;2287958;55;21475;-67
2023/11/29 12:42:45;;;;;;;4.37;2.80;;;9.50;71.80;;;;;;2522703;54;20961;-70
2023/11/29 12:45:15;;;;;;;5.30;2.80;;;9.60;71.90;;;;;;2523056;54;20991;-68
2023/11/29 12:47:41;;;;;;;4.32;2.58;;;9.70;72.10;;;;;;2523305;54;20956;-68
2023/11/29 12:50:11;;;;;;;4.12;2.47;;;9.80;72.20;;;;;;2522785;54;21003;-69
2023/11/29 12:52:41;;;;;;;4.85;3.05;;;9.80;72.20;;;;;;2287889;55;21027;-69
2023/11/29 12:55:08;;;;;;;4.62;2.87;;;9.90;72.20;;;;;;2522840;54;20964;-67
2023/11/29 12:57:34;;;;;;;4.53;2.42;;;9.90;72.00;;;;;;2522427;54;20943;-68
2023/11/29 13:00:03;;;;;;;4.25;2.53;;;10.00;70.90;;;;;;2522430;54;20939;-69